Edwards, NY (13635)

10:10 AM EDT on March 24, 2017 (GMT -0400)
Bullhead Pond | | Change Station

Elev 866 ft 44.21 °N, 75.28 °W | Updated 11 seconds ago

Snow
Snow
32.4 °F
Feels Like 32 °F
N
0.0
Wind Variable Wind from West
Gusts 0.0 mph

Today
High -- | Low -- °F
--% Chance of Precip.
Yesterday
High -- | Low -- °F
Precip. -- in
Pressure 30.11 in
Visibility 10.0 miles
Clouds Scattered Clouds 1100 ft
Overcast 2000 ft
Windchill 32 °F
Dew Point 17 °F
Humidity 52%
Rainfall 0.00 in
Snow Depth Not available.
6:56 AM 7:18 PM
Waning Crescent, 15% visible
SPECI KGTB 241408Z AUTO 17007KT 10SM UP SCT011 OVC020 00/M02 A3011 RMK AO2 SNE05UPB05 CIG 010V021 PRESFR
Pressure 30.11 in
Visibility 10.0 miles
Clouds Scattered Clouds 1100 ft
Overcast 2000 ft
Windchill 32 °F
Dew Point 17 °F
Humidity 52%
Rainfall 0.00 in
Snow Depth Not available.
6:56 AM 7:18 PM
Waning Crescent, 15% visible
SPECI KGTB 241408Z AUTO 17007KT 10SM UP SCT011 OVC020 00/M02 A3011 RMK AO2 SNE05UPB05 CIG 010V021 PRESFR

Get Severe Weather Alerts

Thanks for signing up!

Be on the lookout for a verification email in your inbox.

You'll start receiving the daily forecast at 8 AM.

×

10-Day Weather Forecast

Almanac

Astronomy

Mar. 24, 2017 Rise Set
Actual Time
Civil Twilight
Nautical Twilight
Astronomical Twilight
Moon
Length of Visible Light
Length of Day
Tomorrow will be .
, % of the Moon is Illuminated

Today's Extremes

State Highs State Lows

Community

WunderPhotos

Upload Photos

1,962,540 photos uploaded!

WunderBlog® & News

Nearby

Air Quality

  Air Quality AQ Index Pollutant
Not available.

Snow Depth

Station Depth Elevation

Earthquake Activity

City Distance Mag. Time & Date
Minimum magnitude displayed is 2.5.

Earthquake Activity

City Distance Mag. Time & Date
Minimum magnitude displayed is 2.5.

Coastal Water Temperatures

Place Temperature

Stations

Nearby Weather Stations

Station Location Temp. Windchill Dew Point Humidity Wind Precip. Elev Updated Type
                   

Watches & Warnings

There are currently no watches in effect.